Time;durP1;ratioP1;P1;durP2;ratioP2;P2;SDS_P1;SDS_P2;PMS_P1;PMS_P2;Temp;Humidity;BMP_temperature;BMP_pressure;BME280_temperature;BME280_humidity;BME280_pressure;Samples;Min_cycle;Max_cycle;Signal;HPM_P1;HPM_P2
2022/01/07 00:00:47;;;;;;;22.77;11.13;;;1.20;99.90;;;;;;5036511;28;20185;-71
2022/01/07 00:03:13;;;;;;;27.27;11.13;;;1.20;99.90;;;;;;5048659;28;20197;-71
2022/01/07 00:05:39;;;;;;;18.00;9.50;;;1.20;99.90;;;;;;5053003;28;20454;-71
2022/01/07 00:08:05;;;;;;;26.27;10.90;;;;;;;;;;5043883;28;20425;-71
2022/01/07 00:10:32;;;;;;;17.63;9.70;;;1.20;99.90;;;;;;5047821;28;20522;-71
2022/01/07 00:12:57;;;;;;;22.80;11.00;;;1.20;99.90;;;;;;5039134;28;20428;-71
2022/01/07 00:15:23;;;;;;;20.50;9.50;;;1.10;99.90;;;;;;5043748;28;20583;-71
2022/01/07 00:17:48;;;;;;;20.20;10.70;;;1.10;99.90;;;;;;5047022;28;20218;-71
2022/01/07 00:20:15;;;;;;;28.17;10.40;;;1.10;99.90;;;;;;5043773;28;20212;-71
2022/01/07 00:22:42;;;;;;;19.93;10.37;;;1.00;99.90;;;;;;5028781;28;20290;-71
2022/01/07 00:25:10;;;;;;;21.13;10.57;;;1.10;99.90;;;;;;5045355;28;20447;-71
2022/01/07 00:27:36;;;;;;;22.33;9.87;;;1.00;99.90;;;;;;5033053;28;20668;-71
2022/01/07 00:30:03;;;;;;;21.87;10.30;;;0.90;99.90;;;;;;5032845;28;20574;-71
2022/01/07 00:32:29;;;;;;;18.57;9.20;;;0.80;99.90;;;;;;5038758;28;20515;-71
2022/01/07 00:34:55;;;;;;;19.23;10.10;;;0.80;99.90;;;;;;5039392;28;20698;-71
2022/01/07 00:37:20;;;;;;;22.17;10.17;;;1.00;99.90;;;;;;5039763;28;20651;-71
2022/01/07 00:39:47;;;;;;;22.53;11.23;;;0.90;99.90;;;;;;5036611;28;20252;-71
2022/01/07 00:42:13;;;;;;;17.93;10.13;;;1.00;99.90;;;;;;5039082;28;20185;-71
2022/01/07 00:44:38;;;;;;;17.50;9.30;;;0.80;99.90;;;;;;5050527;28;20443;-71
2022/01/07 00:47:05;;;;;;;17.60;8.83;;;0.80;99.90;;;;;;5049389;28;20197;-71
2022/01/07 00:49:30;;;;;;;23.90;9.40;;;0.90;99.90;;;;;;5051803;28;20177;-71
2022/01/07 00:51:59;;;;;;;20.97;9.43;;;0.90;99.90;;;;;;5047134;28;20929;-71
2022/01/07 00:54:25;;;;;;;18.63;8.90;;;0.90;99.90;;;;;;5032819;28;20256;-71
2022/01/07 00:56:50;;;;;;;19.77;9.10;;;0.80;99.90;;;;;;5037935;28;20424;-71
2022/01/07 00:59:16;;;;;;;22.73;9.20;;;0.90;99.90;;;;;;5033027;28;20421;-71
2022/01/07 01:01:41;;;;;;;16.60;9.70;;;0.80;99.90;;;;;;5033114;28;20170;-71
2022/01/07 01:04:07;;;;;;;18.80;8.87;;;0.90;99.90;;;;;;5043901;28;20177;-71
2022/01/07 01:06:33;;;;;;;21.03;8.63;;;0.90;99.90;;;;;;5052877;28;20176;-71
2022/01/07 01:08:59;;;;;;;23.43;8.70;;;1.00;99.90;;;;;;5048289;28;20173;-71
2022/01/07 01:11:24;;;;;;;19.70;8.80;;;0.80;99.90;;;;;;5052165;28;20465;-71
2022/01/07 01:13:50;;;;;;;19.50;9.37;;;0.90;99.90;;;;;;5039773;28;20616;-71
2022/01/07 01:16:16;;;;;;;14.90;8.40;;;0.90;99.90;;;;;;5035103;28;20694;-71
2022/01/07 01:18:41;;;;;;;19.53;8.60;;;;;;;;;;5032770;28;20197;-71
2022/01/07 01:21:07;;;;;;;17.47;9.00;;;1.00;99.90;;;;;;5030220;28;20181;-71
2022/01/07 01:23:33;;;;;;;18.43;8.63;;;1.00;99.90;;;;;;5042351;28;20527;-71
2022/01/07 01:25:58;;;;;;;19.53;8.17;;;1.30;99.90;;;;;;5047260;28;20197;-71
2022/01/07 01:28:24;;;;;;;12.87;8.20;;;1.10;99.90;;;;;;5039760;28;20233;-70
2022/01/07 01:30:50;;;;;;;17.47;8.63;;;1.00;99.90;;;;;;5033148;28;20188;-71
2022/01/07 01:33:15;;;;;;;18.73;8.17;;;1.00;99.90;;;;;;5032737;28;20246;-71
2022/01/07 01:35:41;;;;;;;17.67;7.70;;;1.20;99.90;;;;;;5047784;28;20281;-71
2022/01/07 01:38:07;;;;;;;12.53;7.50;;;1.00;99.90;;;;;;5044779;28;20215;-71
2022/01/07 01:40:33;;;;;;;14.03;7.70;;;1.00;99.90;;;;;;5032820;28;20178;-72
2022/01/07 01:43:00;;;;;;;15.80;7.70;;;1.30;99.90;;;;;;5033904;28;20884;-71
2022/01/07 01:45:26;;;;;;;15.07;7.90;;;1.40;99.90;;;;;;5051320;28;20196;-71
2022/01/07 01:47:52;;;;;;;21.23;7.50;;;1.00;99.90;;;;;;5050856;28;20507;-71
2022/01/07 01:50:18;;;;;;;19.13;7.73;;;1.50;99.90;;;;;;5040492;28;20169;-72
2022/01/07 01:52:50;;;;;;;21.50;8.50;;;1.20;99.90;;;;;;5031299;28;20524;-72
2022/01/07 01:55:18;;;;;;;16.90;6.87;;;1.20;99.90;;;;;;5044231;28;20452;-71
2022/01/07 01:57:44;;;;;;;17.70;7.23;;;1.10;99.90;;;;;;5045143;28;20798;-71
2022/01/07 02:00:10;;;;;;;17.67;7.70;;;1.60;99.90;;;;;;5051505;28;20438;-71
2022/01/07 02:02:36;;;;;;;14.60;8.57;;;1.30;99.90;;;;;;5043849;28;20989;-71
2022/01/07 02:05:03;;;;;;;18.57;8.20;;;1.20;99.90;;;;;;5047217;28;20519;-71
2022/01/07 02:07:31;;;;;;;16.80;7.80;;;1.20;99.90;;;;;;5055661;28;20415;-71
2022/01/07 02:09:56;;;;;;;16.87;7.80;;;1.80;99.90;;;;;;5037996;28;20429;-70
2022/01/07 02:12:22;;;;;;;16.03;7.73;;;1.20;99.90;;;;;;5039553;28;20431;-71
2022/01/07 02:14:53;;;;;;;17.60;8.40;;;1.20;99.90;;;;;;5046109;28;20574;-71
2022/01/07 02:17:20;;;;;;;23.03;11.67;;;1.70;99.90;;;;;;5047981;28;20182;-70
2022/01/07 02:19:46;;;;;;;19.53;8.33;;;1.20;99.90;;;;;;5034041;28;20482;-71
2022/01/07 02:22:12;;;;;;;18.70;7.17;;;1.20;99.90;;;;;;5029388;28;20456;-71
2022/01/07 02:24:38;;;;;;;11.83;6.50;;;1.20;99.90;;;;;;5032647;28;20437;-71
2022/01/07 02:27:05;;;;;;;14.93;7.90;;;1.20;99.90;;;;;;5038800;28;20432;-71
2022/01/07 02:29:30;;;;;;;14.00;7.03;;;1.30;99.90;;;;;;5050989;28;20191;-71
2022/01/07 02:31:56;;;;;;;21.50;7.63;;;1.30;99.90;;;;;;5034603;28;20512;-71
2022/01/07 02:34:22;;;;;;;12.40;6.50;;;1.30;99.90;;;;;;5045523;28;20181;-71
2022/01/07 02:36:48;;;;;;;16.97;6.73;;;;;;;;;;5054307;28;20250;-71
2022/01/07 02:39:14;;;;;;;14.20;7.00;;;1.30;99.90;;;;;;5055832;28;20420;-71
2022/01/07 02:41:39;;;;;;;14.57;7.00;;;1.70;99.90;;;;;;5033650;28;20921;-71
2022/01/07 02:44:05;;;;;;;11.30;6.73;;;1.30;99.90;;;;;;5030726;28;20285;-72
2022/01/07 02:46:31;;;;;;;23.90;7.77;;;1.40;99.90;;;;;;5050278;28;20713;-72
2022/01/07 02:48:57;;;;;;;16.60;6.83;;;1.70;99.90;;;;;;5037549;28;20666;-71
2022/01/07 02:51:23;;;;;;;15.43;7.40;;;1.30;99.90;;;;;;5048590;28;20239;-71
2022/01/07 02:53:48;;;;;;;13.47;7.30;;;1.30;99.90;;;;;;5041411;28;20456;-72
2022/01/07 02:56:14;;;;;;;15.00;7.33;;;1.20;99.90;;;;;;5032677;28;20232;-71
2022/01/07 02:58:40;;;;;;;13.17;7.20;;;1.30;99.90;;;;;;5051268;28;20187;-71
2022/01/07 03:01:05;;;;;;;14.20;7.10;;;1.20;99.90;;;;;;5042014;28;20222;-72
2022/01/07 03:03:31;;;;;;;12.80;8.07;;;1.10;99.90;;;;;;5036457;28;20212;-72
2022/01/07 03:05:56;;;;;;;14.43;6.80;;;1.10;99.90;;;;;;5050214;28;20283;-71
2022/01/07 03:08:22;;;;;;;15.50;7.73;;;1.10;99.90;;;;;;5044199;28;20184;-71
2022/01/07 03:10:47;;;;;;;17.93;7.60;;;1.10;99.90;;;;;;5037563;28;20185;-71
2022/01/07 03:13:13;;;;;;;15.93;6.93;;;;;;;;;;5031436;28;20186;-71
2022/01/07 03:15:39;;;;;;;12.87;6.90;;;1.00;99.90;;;;;;5047539;28;20205;-72
2022/01/07 03:18:06;;;;;;;16.70;6.60;;;1.20;99.90;;;;;;5036982;28;20752;-72
2022/01/07 03:20:38;;;;;;;12.40;6.70;;;1.30;99.90;;;;;;5043398;28;20192;-71
2022/01/07 03:23:07;;;;;;;15.40;6.87;;;1.40;99.90;;;;;;5029242;28;20472;-71
2022/01/07 03:25:33;;;;;;;12.57;6.50;;;1.50;99.90;;;;;;5030814;28;20451;-71
2022/01/07 03:27:59;;;;;;;15.77;6.80;;;1.60;99.90;;;;;;5047873;28;20833;-71
2022/01/07 03:30:25;;;;;;;11.70;7.33;;;1.60;99.90;;;;;;5043744;28;20520;-71
2022/01/07 03:32:50;;;;;;;16.17;7.20;;;1.70;99.90;;;;;;5030546;28;20587;-71
2022/01/07 03:35:17;;;;;;;15.07;7.20;;;1.70;99.90;;;;;;5039203;28;20210;-72
2022/01/07 03:37:44;;;;;;;13.67;7.80;;;1.70;99.90;;;;;;5054125;28;20175;-71
2022/01/07 03:40:12;;;;;;;17.47;7.40;;;1.60;99.90;;;;;;5045618;28;20482;-71
2022/01/07 03:42:37;;;;;;;9.53;6.60;;;1.50;99.90;;;;;;5044135;28;20498;-71
2022/01/07 03:45:04;;;;;;;21.07;6.90;;;1.50;99.90;;;;;;5047183;28;20471;-71
2022/01/07 03:47:30;;;;;;;16.87;6.97;;;1.40;99.90;;;;;;5031209;28;20170;-71
2022/01/07 03:49:56;;;;;;;13.13;7.17;;;1.30;99.90;;;;;;5040694;28;20926;-72
2022/01/07 03:52:21;;;;;;;15.73;6.27;;;1.80;99.90;;;;;;5033777;28;20257;-71
2022/01/07 03:54:48;;;;;;;14.33;6.57;;;1.30;99.90;;;;;;5044233;28;20205;-71
2022/01/07 03:57:14;;;;;;;16.80;7.17;;;1.30;99.90;;;;;;5041967;28;20562;-71
2022/01/07 03:59:39;;;;;;;15.07;6.20;;;1.30;99.90;;;;;;5039951;28;20471;-71
2022/01/07 04:02:05;;;;;;;12.17;6.77;;;1.30;99.90;;;;;;5037576;28;20185;-71
2022/01/07 04:04:30;;;;;;;12.70;6.63;;;1.50;99.90;;;;;;5042006;28;20283;-71
2022/01/07 04:06:56;;;;;;;10.73;5.73;;;1.40;99.90;;;;;;5057636;28;20265;-71
2022/01/07 04:09:21;;;;;;;9.90;5.93;;;1.50;99.90;;;;;;5053683;28;20421;-71
2022/01/07 04:11:47;;;;;;;12.30;6.77;;;1.50;99.90;;;;;;5045982;28;20181;-71
2022/01/07 04:14:12;;;;;;;13.80;6.20;;;1.50;99.90;;;;;;5041829;28;20209;-71
2022/01/07 04:16:38;;;;;;;17.50;6.37;;;;;;;;;;5029140;28;20242;-71
2022/01/07 04:19:04;;;;;;;14.10;6.43;;;1.50;99.90;;;;;;5028510;28;20240;-71
2022/01/07 04:21:29;;;;;;;10.53;6.23;;;1.50;99.90;;;;;;5039925;28;20412;-71
2022/01/07 04:23:55;;;;;;;9.87;5.70;;;1.40;99.90;;;;;;5047575;28;20200;-71
2022/01/07 04:26:20;;;;;;;12.13;6.27;;;1.50;99.90;;;;;;5042562;28;20201;-72
2022/01/07 04:28:46;;;;;;;11.00;6.03;;;1.50;99.90;;;;;;5041479;28;20173;-71
2022/01/07 04:31:11;;;;;;;13.77;6.17;;;1.50;99.90;;;;;;5038353;28;20300;-71
2022/01/07 04:33:37;;;;;;;11.73;6.40;;;1.90;99.90;;;;;;5039834;28;20471;-71
2022/01/07 04:36:02;;;;;;;10.90;6.33;;;1.40;99.90;;;;;;5044344;28;20767;-71
2022/01/07 04:38:28;;;;;;;18.20;6.80;;;1.40;99.90;;;;;;5041065;28;20173;-71
2022/01/07 04:40:53;;;;;;;10.87;6.50;;;1.40;99.90;;;;;;5041715;28;20189;-71
2022/01/07 04:43:19;;;;;;;17.23;7.90;;;1.30;99.90;;;;;;5041759;28;20294;-71
2022/01/07 04:45:45;;;;;;;12.07;6.63;;;1.40;99.90;;;;;;5040129;28;20330;-71
2022/01/07 04:48:11;;;;;;;16.83;7.37;;;1.40;99.90;;;;;;5040749;28;20578;-71
2022/01/07 04:50:37;;;;;;;13.37;6.50;;;;;;;;;;5042712;28;20182;-71
2022/01/07 04:53:04;;;;;;;19.87;7.43;;;1.40;99.90;;;;;;5037165;28;20173;-71
2022/01/07 04:55:38;;;;;;;11.37;7.20;;;1.50;99.90;;;;;;5047730;28;20443;-71
2022/01/07 04:58:11;;;;;;;13.57;7.50;;;1.50;99.90;;;;;;5030673;28;20420;-71
2022/01/07 05:00:37;;;;;;;16.07;7.30;;;1.80;99.90;;;;;;5035259;28;20442;-71
2022/01/07 05:03:03;;;;;;;12.27;7.80;;;1.70;99.90;;;;;;5043195;28;20516;-71
2022/01/07 05:05:29;;;;;;;17.07;8.10;;;1.70;99.90;;;;;;5042506;28;20499;-71
2022/01/07 05:07:54;;;;;;;14.07;7.43;;;1.60;99.90;;;;;;5052814;28;20263;-71
2022/01/07 05:10:20;;;;;;;14.90;7.63;;;1.60;99.90;;;;;;5045645;28;20182;-71
2022/01/07 05:12:46;;;;;;;16.87;7.83;;;1.60;99.90;;;;;;5041036;28;20217;-71
2022/01/07 05:15:13;;;;;;;14.27;7.80;;;1.70;99.90;;;;;;5046580;28;20201;-71
2022/01/07 05:17:40;;;;;;;17.87;7.70;;;1.70;99.90;;;;;;5029914;28;20521;-71
2022/01/07 05:20:06;;;;;;;16.10;7.30;;;;;;;;;;5033639;28;20440;-71
2022/01/07 05:22:31;;;;;;;15.57;8.83;;;1.80;99.90;;;;;;5046175;28;20473;-72
2022/01/07 05:24:57;;;;;;;12.87;8.20;;;1.80;99.90;;;;;;5039074;28;20551;-72
2022/01/07 05:27:23;;;;;;;14.80;7.60;;;1.90;99.90;;;;;;5028184;28;20231;-71
2022/01/07 05:29:48;;;;;;;15.17;7.30;;;2.10;99.90;;;;;;5029747;28;20773;-72
2022/01/07 05:32:14;;;;;;;17.40;7.83;;;2.00;99.90;;;;;;5033012;28;20178;-72
2022/01/07 05:34:40;;;;;;;18.43;7.77;;;;;;;;;;5039309;28;20204;-71
2022/01/07 05:37:07;;;;;;;16.20;7.50;;;2.10;99.90;;;;;;5055141;28;20618;-71
2022/01/07 05:39:32;;;;;;;18.77;7.00;;;2.10;99.90;;;;;;5045638;28;20447;-70
2022/01/07 05:41:59;;;;;;;15.30;8.00;;;2.10;99.90;;;;;;5043399;28;20427;-71
2022/01/07 05:44:25;;;;;;;16.40;7.77;;;2.10;99.90;;;;;;5046796;28;20222;-71
2022/01/07 05:46:51;;;;;;;13.60;7.80;;;2.20;99.90;;;;;;5050807;28;20431;-71
2022/01/07 05:49:16;;;;;;;12.47;7.37;;;2.20;99.90;;;;;;5048398;28;20177;-71
2022/01/07 05:51:42;;;;;;;15.20;6.73;;;2.30;99.90;;;;;;5041147;28;20675;-71
2022/01/07 05:54:09;;;;;;;10.47;6.50;;;2.10;99.90;;;;;;5032938;28;20703;-70
2022/01/07 05:56:35;;;;;;;14.83;7.30;;;2.10;99.90;;;;;;5050116;28;20272;-71
2022/01/07 05:59:00;;;;;;;17.07;7.50;;;2.30;99.90;;;;;;5041540;28;20440;-71
2022/01/07 06:01:26;;;;;;;14.33;7.43;;;2.10;99.90;;;;;;5053849;28;20435;-71
2022/01/07 06:03:51;;;;;;;16.10;7.40;;;2.10;99.90;;;;;;5045146;28;20262;-71
2022/01/07 06:06:17;;;;;;;16.67;8.07;;;2.10;99.90;;;;;;5042805;28;20193;-71
2022/01/07 06:08:42;;;;;;;18.43;8.43;;;2.10;99.90;;;;;;5052346;28;20742;-71
2022/01/07 06:11:08;;;;;;;13.57;7.30;;;2.40;99.90;;;;;;5056956;28;20589;-69
2022/01/07 06:13:33;;;;;;;16.23;7.30;;;2.10;99.90;;;;;;5044252;28;20273;-70
2022/01/07 06:15:59;;;;;;;15.77;7.03;;;2.50;99.90;;;;;;5037836;28;20304;-71
2022/01/07 06:18:24;;;;;;;17.53;7.57;;;2.20;99.90;;;;;;5031361;28;20256;-70
2022/01/07 06:20:50;;;;;;;13.80;7.17;;;2.20;99.90;;;;;;5029917;28;20232;-70
2022/01/07 16:00:32;;;;;;;11.48;5.95;;;3.00;99.90;;;;;;5071848;28;21029;-70
2022/01/07 16:02:58;;;;;;;7.47;4.50;;;3.10;99.90;;;;;;5065603;28;20164;-71
2022/01/07 16:05:26;;;;;;;8.80;4.83;;;3.40;99.90;;;;;;5066469;28;20558;-70
2022/01/07 16:07:52;;;;;;;9.63;4.57;;;3.40;99.90;;;;;;5064036;28;20184;-71
2022/01/07 16:10:17;;;;;;;8.53;4.83;;;3.50;99.90;;;;;;5046030;28;20427;-71
2022/01/07 16:12:43;;;;;;;9.37;4.00;;;3.70;99.90;;;;;;5058490;28;20229;-70
2022/01/07 16:15:09;;;;;;;8.80;5.60;;;3.70;99.90;;;;;;5058257;28;20212;-71
2022/01/07 16:17:35;;;;;;;10.80;4.60;;;3.80;99.90;;;;;;5057457;28;20196;-70
2022/01/07 16:20:00;;;;;;;6.33;4.00;;;4.30;99.90;;;;;;5065053;28;20859;-71
2022/01/07 16:22:26;;;;;;;6.77;4.83;;;4.00;99.90;;;;;;5056951;28;20173;-70
2022/01/07 16:24:51;;;;;;;7.10;5.03;;;4.00;99.90;;;;;;5084585;28;20213;-71
2022/01/07 16:27:17;;;;;;;10.13;5.47;;;4.20;99.90;;;;;;5049114;28;20226;-71
2022/01/07 16:29:42;;;;;;;11.00;4.80;;;4.10;99.90;;;;;;5062023;28;20196;-71
2022/01/07 16:32:08;;;;;;;12.57;5.00;;;3.90;99.90;;;;;;5059194;28;20285;-71
2022/01/07 16:34:33;;;;;;;9.70;5.27;;;3.70;99.90;;;;;;5059817;28;20188;-70
2022/01/07 16:36:59;;;;;;;17.97;9.53;;;4.00;99.90;;;;;;5056532;28;20593;-71
2022/01/07 16:39:25;;;;;;;13.30;6.40;;;3.90;99.90;;;;;;5047929;28;20506;-71
2022/01/07 16:41:50;;;;;;;5.97;4.00;;;3.60;99.90;;;;;;5050681;28;20222;-72
2022/01/07 16:44:16;;;;;;;9.70;5.03;;;3.80;99.90;;;;;;5059055;28;20176;-71
2022/01/07 16:46:42;;;;;;;9.53;4.70;;;3.80;99.90;;;;;;5072636;28;20258;-71
2022/01/07 16:49:07;;;;;;;6.53;4.50;;;3.70;99.90;;;;;;5061327;28;20312;-71
2022/01/07 16:51:33;;;;;;;10.70;5.00;;;3.70;99.90;;;;;;5064190;28;20476;-71
2022/01/07 16:53:58;;;;;;;9.27;4.80;;;3.60;99.90;;;;;;5054455;28;20181;-71
2022/01/07 16:56:24;;;;;;;7.93;5.30;;;3.60;99.90;;;;;;5055036;28;20209;-71
2022/01/07 16:58:49;;;;;;;7.73;4.67;;;3.70;99.90;;;;;;5044933;28;20231;-71
2022/01/07 17:01:15;;;;;;;7.27;5.43;;;3.70;99.90;;;;;;5045584;28;20173;-71
2022/01/07 17:03:41;;;;;;;10.87;5.70;;;3.90;99.90;;;;;;5042528;28;20268;-71
2022/01/07 17:06:07;;;;;;;11.63;6.40;;;3.70;99.90;;;;;;5062231;28;20472;-71
2022/01/07 17:08:33;;;;;;;11.07;6.20;;;3.60;99.90;;;;;;5065336;28;20834;-72
2022/01/07 17:10:58;;;;;;;8.80;4.80;;;3.60;99.90;;;;;;5051672;28;20196;-71
2022/01/07 17:13:24;;;;;;;13.10;4.17;;;3.50;99.90;;;;;;5044291;28;20674;-71
2022/01/07 17:15:49;;;;;;;8.00;5.60;;;3.40;99.90;;;;;;5049334;28;20204;-71
2022/01/07 17:18:15;;;;;;;8.30;5.40;;;3.70;99.90;;;;;;5031364;28;20178;-71
2022/01/07 17:20:41;;;;;;;12.20;5.70;;;3.40;99.90;;;;;;5037632;28;20244;-71
2022/01/07 17:23:06;;;;;;;7.57;3.70;;;3.40;99.90;;;;;;5050536;28;20166;-71
2022/01/07 17:25:32;;;;;;;10.70;4.60;;;3.30;99.90;;;;;;5045815;28;20259;-71
2022/01/07 17:27:58;;;;;;;9.53;5.00;;;3.30;99.90;;;;;;5043430;28;20469;-71
2022/01/07 17:30:23;;;;;;;11.07;5.10;;;3.30;99.90;;;;;;5046287;28;20500;-71
2022/01/07 17:32:50;;;;;;;6.97;4.43;;;3.30;99.90;;;;;;5050282;28;20241;-71
2022/01/07 17:35:19;;;;;;;9.80;5.57;;;3.50;99.90;;;;;;5052127;28;20707;-71
2022/01/07 17:37:44;;;;;;;14.00;5.33;;;3.40;99.90;;;;;;5053908;28;20949;-71
2022/01/07 17:40:10;;;;;;;12.13;6.13;;;3.30;99.90;;;;;;5032770;28;20542;-71
2022/01/07 17:42:36;;;;;;;15.10;8.37;;;3.30;99.90;;;;;;5050123;28;20543;-71
2022/01/07 17:45:03;;;;;;;13.17;8.30;;;3.30;99.90;;;;;;5048642;28;20277;-71
2022/01/07 17:47:29;;;;;;;9.10;6.03;;;3.30;99.90;;;;;;5036734;28;20181;-71
2022/01/07 17:49:55;;;;;;;14.93;7.63;;;3.30;99.90;;;;;;5045775;28;20506;-71
2022/01/07 17:52:20;;;;;;;12.57;6.73;;;3.60;99.90;;;;;;5049372;28;20204;-71
2022/01/07 17:54:46;;;;;;;8.20;6.00;;;3.30;99.90;;;;;;5045058;28;20225;-72
2022/01/07 17:57:11;;;;;;;7.57;4.27;;;3.40;99.90;;;;;;5046088;28;20253;-71
2022/01/07 17:59:37;;;;;;;9.30;6.50;;;3.50;99.90;;;;;;5050359;28;20281;-71
2022/01/07 18:02:04;;;;;;;7.50;5.30;;;3.40;99.90;;;;;;5049657;28;20190;-71
2022/01/07 18:04:30;;;;;;;6.70;4.20;;;3.50;99.90;;;;;;5052807;28;20259;-70
2022/01/07 18:06:55;;;;;;;8.77;6.00;;;3.50;99.90;;;;;;5057841;28;20510;-71
2022/01/07 18:09:21;;;;;;;9.20;5.00;;;3.50;99.90;;;;;;5062176;28;20182;-71
2022/01/07 18:11:47;;;;;;;15.63;8.30;;;3.50;99.90;;;;;;5049692;28;20725;-71
2022/01/07 18:14:13;;;;;;;9.17;4.77;;;3.50;99.90;;;;;;5048571;28;20901;-71
2022/01/07 18:16:39;;;;;;;9.33;7.10;;;3.60;99.90;;;;;;5048130;28;20203;-71
2022/01/07 18:19:04;;;;;;;11.33;6.47;;;3.60;99.90;;;;;;5048348;28;21016;-71
2022/01/07 18:21:31;;;;;;;15.70;8.77;;;3.80;99.90;;;;;;5048691;28;20203;-71
2022/01/07 18:23:56;;;;;;;9.07;7.03;;;3.70;99.90;;;;;;5042103;28;20166;-71
2022/01/07 18:26:22;;;;;;;7.60;6.10;;;3.70;99.90;;;;;;5049062;28;20430;-71
2022/01/07 18:28:47;;;;;;;8.83;6.50;;;3.70;99.90;;;;;;5048715;28;20185;-70
2022/01/07 18:31:13;;;;;;;9.20;7.50;;;3.70;99.90;;;;;;5047925;28;20185;-71
2022/01/07 18:33:39;;;;;;;9.57;6.13;;;3.70;99.90;;;;;;5048859;28;20205;-71
2022/01/07 18:36:04;;;;;;;10.57;6.80;;;3.70;99.90;;;;;;5040844;28;21466;-71
2022/01/07 18:38:31;;;;;;;11.97;8.10;;;3.60;99.90;;;;;;5062479;28;20220;-71
2022/01/07 18:40:58;;;;;;;7.17;4.97;;;3.60;99.90;;;;;;5029019;28;20176;-71
2022/01/07 18:43:23;;;;;;;10.77;6.97;;;3.40;99.90;;;;;;5030416;28;20407;-71
2022/01/07 18:45:49;;;;;;;8.80;5.80;;;3.40;99.90;;;;;;5028900;28;20432;-71
2022/01/07 18:48:15;;;;;;;20.60;13.17;;;3.40;99.90;;;;;;5029509;28;20174;-71
2022/01/07 18:50:40;;;;;;;14.97;8.83;;;3.80;99.90;;;;;;5030366;28;20190;-71
2022/01/07 18:53:07;;;;;;;12.83;6.80;;;3.50;99.90;;;;;;5028635;28;20245;-71
2022/01/07 18:55:34;;;;;;;8.87;6.20;;;3.50;99.90;;;;;;5046892;28;20627;-71
2022/01/07 18:58:01;;;;;;;8.97;5.43;;;3.60;99.90;;;;;;5048222;28;20424;-71
2022/01/07 19:00:26;;;;;;;7.03;5.50;;;3.60;99.90;;;;;;5043049;28;20536;-70
2022/01/07 19:02:52;;;;;;;8.87;5.90;;;3.70;99.90;;;;;;5048047;28;20409;-71
2022/01/07 19:05:18;;;;;;;11.00;7.00;;;3.70;99.90;;;;;;5048014;28;20540;-71
2022/01/07 19:07:45;;;;;;;10.53;6.00;;;3.50;99.90;;;;;;5055833;28;20184;-71
2022/01/07 19:10:10;;;;;;;10.40;5.70;;;3.70;99.90;;;;;;5047147;28;20430;-71
2022/01/07 19:12:36;;;;;;;7.60;5.40;;;3.60;99.90;;;;;;5034170;28;20552;-71
2022/01/07 19:15:03;;;;;;;10.60;6.97;;;3.70;99.90;;;;;;5028351;28;20193;-70
2022/01/07 19:17:29;;;;;;;8.73;6.37;;;3.60;99.90;;;;;;5040302;28;20257;-71
2022/01/07 19:19:54;;;;;;;10.20;6.53;;;3.60;99.90;;;;;;5048078;28;20459;-71
2022/01/07 19:22:20;;;;;;;8.80;5.43;;;3.70;99.90;;;;;;5037083;28;20178;-71
2022/01/07 19:24:45;;;;;;;7.87;5.50;;;3.70;99.90;;;;;;5037444;28;20547;-71
2022/01/07 19:27:11;;;;;;;8.80;5.60;;;3.80;99.90;;;;;;5048170;28;20339;-71
2022/01/07 19:29:36;;;;;;;9.00;6.20;;;3.80;99.90;;;;;;5040446;28;20216;-71
2022/01/07 19:32:02;;;;;;;6.93;4.90;;;3.90;99.90;;;;;;5028802;28;20252;-71
2022/01/07 19:34:28;;;;;;;11.27;5.00;;;3.80;99.90;;;;;;5045618;28;20185;-71
2022/01/07 19:36:53;;;;;;;12.70;7.17;;;3.80;99.90;;;;;;5052982;28;20259;-71
2022/01/07 19:39:19;;;;;;;8.27;5.40;;;4.20;99.90;;;;;;5046597;28;20255;-71
2022/01/07 19:41:45;;;;;;;9.33;6.90;;;3.80;99.90;;;;;;5030269;28;20178;-71
2022/01/07 19:44:13;;;;;;;7.83;4.20;;;3.80;99.90;;;;;;5028005;28;20170;-71
2022/01/07 19:46:40;;;;;;;8.10;5.30;;;3.70;99.90;;;;;;5040825;28;20459;-71
2022/01/07 19:49:10;;;;;;;7.80;5.70;;;3.70;99.90;;;;;;5045918;28;20506;-71
2022/01/07 19:51:37;;;;;;;10.30;6.93;;;3.70;99.90;;;;;;5028141;28;20819;-71
2022/01/07 19:54:03;;;;;;;6.10;5.40;;;4.10;99.90;;;;;;5027255;28;20471;-71
2022/01/07 19:56:31;;;;;;;6.80;4.23;;;3.60;99.90;;;;;;5046906;28;20777;-71
2022/01/07 19:58:57;;;;;;;7.37;5.40;;;3.50;99.90;;;;;;5047550;28;20897;-71
2022/01/07 20:01:23;;;;;;;13.07;7.40;;;3.90;99.90;;;;;;5041223;28;20436;-71
2022/01/07 20:03:48;;;;;;;6.10;5.03;;;3.70;99.90;;;;;;5048025;28;20766;-70
2022/01/07 20:06:14;;;;;;;9.53;5.60;;;3.40;99.90;;;;;;5055492;28;20197;-71
2022/01/07 20:08:40;;;;;;;6.83;5.20;;;3.40;99.90;;;;;;5046246;28;20180;-71
2022/01/07 20:11:08;;;;;;;7.90;5.57;;;3.40;99.90;;;;;;5046684;28;20197;-71
2022/01/07 20:13:34;;;;;;;10.30;4.97;;;3.40;99.90;;;;;;5046252;28;20192;-71
2022/01/07 20:15:59;;;;;;;6.97;4.70;;;3.30;99.90;;;;;;5043031;28;20967;-71
2022/01/07 20:18:25;;;;;;;7.50;5.47;;;3.30;99.90;;;;;;5028099;28;20439;-71
2022/01/07 20:20:51;;;;;;;6.30;5.00;;;3.30;99.90;;;;;;5035423;28;20212;-71
2022/01/07 20:23:19;;;;;;;6.60;5.00;;;3.40;99.90;;;;;;5046775;28;20212;-71
2022/01/07 20:25:45;;;;;;;6.47;4.77;;;3.50;99.90;;;;;;5036306;28;20292;-71
2022/01/07 20:28:11;;;;;;;6.67;4.73;;;4.00;99.90;;;;;;5046776;28;20420;-71
2022/01/07 20:30:37;;;;;;;9.30;6.03;;;3.60;99.90;;;;;;5036766;28;20427;-71
2022/01/07 20:33:02;;;;;;;7.60;5.10;;;3.60;99.90;;;;;;5036027;28;20585;-71
2022/01/07 20:35:28;;;;;;;5.60;4.47;;;3.70;99.90;;;;;;5045926;28;20746;-70
2022/01/07 20:37:55;;;;;;;10.00;5.00;;;4.10;99.90;;;;;;5051555;28;20191;-71
2022/01/07 20:40:21;;;;;;;4.73;4.27;;;3.80;99.90;;;;;;5042978;28;20523;-70
2022/01/07 20:42:48;;;;;;;7.43;5.47;;;3.80;99.90;;;;;;5037809;28;20431;-71
2022/01/07 20:45:14;;;;;;;8.30;5.40;;;4.00;99.90;;;;;;5046174;28;20522;-71
2022/01/07 20:47:41;;;;;;;7.23;4.00;;;3.90;99.90;;;;;;5051159;28;20490;-71
2022/01/07 20:50:08;;;;;;;5.40;4.37;;;4.00;99.90;;;;;;5034273;28;20201;-71
2022/01/07 20:52:34;;;;;;;6.30;3.80;;;4.00;99.90;;;;;;5039493;28;20527;-71
2022/01/07 20:54:59;;;;;;;5.80;3.77;;;4.30;99.90;;;;;;5049452;28;20534;-71
2022/01/07 20:57:25;;;;;;;5.60;3.50;;;4.10;99.90;;;;;;5049570;28;20200;-70
2022/01/07 20:59:50;;;;;;;3.20;2.90;;;4.10;99.90;;;;;;5049083;28;20200;-73
2022/01/07 21:02:16;;;;;;;3.97;3.33;;;4.10;99.90;;;;;;5050834;28;20165;-71
2022/01/07 21:04:42;;;;;;;4.00;3.60;;;4.40;99.90;;;;;;5040953;28;20198;-71
2022/01/07 21:07:09;;;;;;;4.03;2.60;;;4.50;99.90;;;;;;5055577;28;20607;-70
2022/01/07 21:09:35;;;;;;;5.53;2.80;;;4.60;99.90;;;;;;5046068;28;20180;-71
2022/01/07 21:12:00;;;;;;;7.40;4.30;;;4.30;99.90;;;;;;5050484;28;20403;-70
2022/01/07 21:14:26;;;;;;;6.60;4.40;;;4.30;99.90;;;;;;5050945;28;20173;-71
2022/01/07 21:16:52;;;;;;;5.07;3.57;;;4.30;99.90;;;;;;5046921;28;20698;-71
2022/01/07 21:19:17;;;;;;;6.10;3.50;;;4.40;99.90;;;;;;5050673;28;20197;-71
2022/01/07 21:21:43;;;;;;;5.53;3.80;;;4.50;99.90;;;;;;5048361;28;20188;-70
2022/01/07 21:24:11;;;;;;;7.27;4.00;;;4.50;99.90;;;;;;5041523;28;20274;-71
2022/01/07 21:26:36;;;;;;;10.80;6.83;;;4.70;99.90;;;;;;5030485;28;20202;-71
2022/01/07 21:29:02;;;;;;;7.43;4.73;;;4.80;99.90;;;;;;5043080;28;20493;-72
2022/01/07 21:31:27;;;;;;;16.17;8.80;;;4.60;99.90;;;;;;5047968;28;20181;-71
2022/01/07 21:33:54;;;;;;;14.23;7.33;;;4.50;99.90;;;;;;5045455;28;20231;-71
2022/01/07 21:36:21;;;;;;;12.23;7.50;;;4.50;99.90;;;;;;5060947;28;20211;-71
2022/01/07 21:38:47;;;;;;;6.53;4.93;;;4.60;99.90;;;;;;5049220;28;20961;-71
2022/01/07 21:41:12;;;;;;;18.10;7.63;;;4.60;99.90;;;;;;5049274;28;20430;-71
2022/01/07 21:43:38;;;;;;;7.20;4.00;;;4.60;99.90;;;;;;5047337;28;20276;-71
2022/01/07 21:46:04;;;;;;;5.20;3.27;;;4.60;99.90;;;;;;5028747;28;20193;-71
2022/01/07 21:48:29;;;;;;;7.23;4.10;;;5.10;99.90;;;;;;5030551;28;20503;-71
2022/01/07 21:50:57;;;;;;;8.60;4.77;;;4.70;99.90;;;;;;5048129;28;20181;-70
2022/01/07 21:53:27;;;;;;;9.90;5.47;;;4.70;99.90;;;;;;5039065;28;20251;-71
2022/01/07 21:55:53;;;;;;;9.97;5.50;;;4.70;99.90;;;;;;5044297;28;20447;-71
2022/01/07 21:58:18;;;;;;;5.40;3.10;;;4.80;99.90;;;;;;5048907;28;20426;-71
2022/01/07 22:00:44;;;;;;;5.30;2.87;;;4.70;99.90;;;;;;5046699;28;20427;-71
2022/01/07 22:03:10;;;;;;;3.47;1.90;;;4.80;99.90;;;;;;5048903;28;20282;-70
2022/01/07 22:05:36;;;;;;;5.13;3.00;;;4.90;99.90;;;;;;5055048;28;20552;-71
2022/01/07 22:08:02;;;;;;;8.63;4.70;;;4.70;99.90;;;;;;5049943;28;20506;-70
2022/01/07 22:10:27;;;;;;;4.93;2.97;;;4.90;99.90;;;;;;5041273;28;20177;-71
2022/01/07 22:12:54;;;;;;;4.00;3.30;;;4.90;99.90;;;;;;5048749;28;20536;-71
2022/01/07 22:15:20;;;;;;;7.90;4.50;;;4.90;99.90;;;;;;5029772;28;20563;-71
2022/01/07 22:17:46;;;;;;;7.63;3.50;;;5.00;99.90;;;;;;5029458;28;20515;-71
2022/01/07 22:20:12;;;;;;;5.10;3.00;;;5.10;99.90;;;;;;5046488;28;20300;-71
2022/01/07 22:22:38;;;;;;;4.77;3.60;;;5.00;99.90;;;;;;5048394;28;20265;-71